Terminal Aerodrome Forecast
Issued by NWS Caribou, ME

Home | Current Version | Previous Version | Text Only | Print | Product List | Glossary On
Versions: 1 2 3 4 5 6 7 8 9 10 11 12 13 14 15 16
000
FTUS41 KCAR 031120
TAFBGR
TAF
KBGR 031120Z 0312/0412 19007KT P6SM BKN250
     FM031500 18012G20KT P6SM BKN250
     FM032200 17010KT P6SM SCT050 BKN090
     FM040200 16007KT P6SM -SHRA OVC020
     FM040600 16005KT 4SM BR VCSH OVC007=

USA.gov is the U.S. government's official web portal to all federal, state and local government web resources and services.